Index, Washington
Current Conditions -  °F | °C
As of 5:53 PM on Saturday 25 Oct 2014 (Local Time) from KPAE Reporting Station
Light Rain Light Rain  
Wind Chill: 14°   Ceiling: 4700
Heat Index: 14°   Visibility: 9mi
Dew Point: 10°   Wind: 13mph
Humidity: 77%   Direction: 150°SSE
Pressure: 29.27"   Gusts: 21mph
Location:  47.82°N, 121.56°W
Report Text: KPAE 260053Z 15011G18KT 9SM -RA OVC047 14/10 A2927 RMK AO2 SLP910 P0004 T01390100
Loading
Personal Weather Stations






























Interactive Weather Map
Tropical Storm Tracking
New forecast layout! Learn more

10-Day Weather Forecast

Advertisements
Track Severe Weather on mobile